createdAt,value
2023-05-10T00:04:45.736Z,15.53
2023-05-10T00:09:42.210Z,15.49
2023-05-10T00:14:39.860Z,15.44
2023-05-10T00:19:49.629Z,15.39
2023-05-10T00:24:49.454Z,15.27
2023-05-10T00:35:02.575Z,15.27
2023-05-10T00:39:58.855Z,15.25
2023-05-10T00:50:13.542Z,15.17
2023-05-10T00:55:17.220Z,15.14
2023-05-10T01:00:53.317Z,15.10
2023-05-10T01:05:56.949Z,14.98
2023-05-10T01:10:55.695Z,14.98
2023-05-10T01:40:11.716Z,14.66
2023-05-10T01:45:15.728Z,14.67
2023-05-10T02:01:44.475Z,14.39
2023-05-10T02:07:03.271Z,14.42
2023-05-10T02:12:07.505Z,14.44
2023-05-10T02:17:06.934Z,14.28
2023-05-10T02:22:04.581Z,14.29
2023-05-10T02:27:01.865Z,14.31
2023-05-10T02:31:58.669Z,14.22
2023-05-10T02:36:56.182Z,14.24
2023-05-10T02:41:53.365Z,14.20
2023-05-10T02:46:49.907Z,14.14
2023-05-10T02:51:51.070Z,14.12
2023-05-10T02:56:58.292Z,14.07
2023-05-10T03:01:54.949Z,14.02
2023-05-10T03:06:52.827Z,13.99
2023-05-10T03:12:01.631Z,13.96
2023-05-10T03:17:11.024Z,13.93
2023-05-10T03:22:11.427Z,13.87
2023-05-10T03:27:09.061Z,13.85
2023-05-10T03:32:10.636Z,13.89
2023-05-10T03:37:07.258Z,13.81
2023-05-10T03:42:03.869Z,13.90
2023-05-10T03:47:00.694Z,13.92
2023-05-10T03:51:57.415Z,13.90
2023-05-10T03:56:53.842Z,13.90
2023-05-10T04:01:50.469Z,13.87
2023-05-10T04:06:47.107Z,13.90
2023-05-10T04:11:44.083Z,13.88
2023-05-10T04:16:46.625Z,13.92
2023-05-10T04:21:43.204Z,13.94
2023-05-10T04:26:39.852Z,13.97
2023-05-10T04:31:37.237Z,14.07
2023-05-10T04:36:36.325Z,14.11
2023-05-10T04:47:40.480Z,14.13
2023-05-10T04:52:37.449Z,14.35
2023-05-10T04:57:33.940Z,14.39
2023-05-10T05:02:30.592Z,14.66
2023-05-10T05:07:27.267Z,14.80
2023-05-10T05:12:23.639Z,14.89
2023-05-10T05:17:20.206Z,15.02
2023-05-10T05:22:16.896Z,15.17
2023-05-10T05:27:14.249Z,15.25
2023-05-10T05:32:13.470Z,15.29
2023-05-10T05:37:17.062Z,15.45
2023-05-10T05:42:14.270Z,15.65
2023-05-10T05:47:11.456Z,15.79
2023-05-10T05:52:07.891Z,15.94
2023-05-10T05:57:04.533Z,16.40
2023-05-10T06:07:28.692Z,18.16
2023-05-10T06:12:32.050Z,18.88
2023-05-10T06:22:59.779Z,20.20
2023-05-10T06:33:19.012Z,19.91
2023-05-10T06:38:16.135Z,19.81
2023-05-10T06:43:14.146Z,19.66
2023-05-10T06:48:10.845Z,19.31
2023-05-10T06:53:07.392Z,18.90
2023-05-10T07:03:17.201Z,18.62
2023-05-10T07:08:14.540Z,18.59
2023-05-10T07:13:11.849Z,18.65
2023-05-10T07:18:08.829Z,18.61
2023-05-10T07:23:09.604Z,18.58
2023-05-10T07:28:06.693Z,18.65
2023-05-10T07:33:03.346Z,18.60
2023-05-10T07:38:02.214Z,18.55
2023-05-10T07:43:00.733Z,18.59
2023-05-10T07:47:59.880Z,18.65
2023-05-10T07:52:56.452Z,18.65
2023-05-10T07:57:52.942Z,18.73
2023-05-10T08:02:49.627Z,18.80
2023-05-10T08:07:46.223Z,18.89
2023-05-10T08:12:42.810Z,19.03
2023-05-10T08:17:39.412Z,18.97
2023-05-10T08:22:36.176Z,18.92
2023-05-10T08:27:32.715Z,18.84
2023-05-10T08:32:29.214Z,18.77
2023-05-10T08:37:25.979Z,18.84
2023-05-10T08:42:23.851Z,18.94
2023-05-10T08:47:35.746Z,18.98
2023-05-10T08:52:33.506Z,18.97
2023-05-10T08:57:29.958Z,19.03
2023-05-10T09:02:26.684Z,19.06
2023-05-10T09:07:23.533Z,19.22
2023-05-10T09:12:20.142Z,19.30
2023-05-10T09:17:24.886Z,19.30
2023-05-10T09:22:21.592Z,19.23
2023-05-10T09:27:20.830Z,19.18
2023-05-10T09:32:24.465Z,19.19
2023-05-10T09:37:30.509Z,19.23
2023-05-10T09:42:28.271Z,19.27
2023-05-10T09:47:26.303Z,19.24
2023-05-10T09:52:22.814Z,19.17
2023-05-10T09:57:49.449Z,19.24
2023-05-10T10:02:55.078Z,19.11
2023-05-10T10:07:53.838Z,18.88
2023-05-10T10:12:53.250Z,18.65
2023-05-10T10:17:50.764Z,18.40
2023-05-10T10:22:48.280Z,18.24
2023-05-10T10:27:53.717Z,18.05
2023-05-10T10:33:16.494Z,17.89
2023-05-10T10:38:23.953Z,17.81
2023-05-10T10:43:29.935Z,17.70
2023-05-10T10:48:27.304Z,17.54
2023-05-10T10:53:23.858Z,17.52
2023-05-10T10:58:31.849Z,17.40
2023-05-10T11:03:29.908Z,17.38
2023-05-10T11:08:35.760Z,17.35
2023-05-10T11:13:39.903Z,17.38
2023-05-10T11:18:38.030Z,17.36
2023-05-10T11:23:57.485Z,17.37
2023-05-10T11:28:56.334Z,17.37
2023-05-10T11:33:55.387Z,17.44
2023-05-10T11:38:51.988Z,17.45
2023-05-10T11:43:50.886Z,17.55
2023-05-10T11:48:51.825Z,17.52
2023-05-10T11:53:48.880Z,17.49
2023-05-10T11:58:56.963Z,17.49
2023-05-10T12:03:55.070Z,17.44
2023-05-10T12:08:54.480Z,17.40
2023-05-10T12:13:51.310Z,17.38
2023-05-10T12:19:01.619Z,17.39
2023-05-10T12:24:03.760Z,17.36
2023-05-10T12:29:17.673Z,17.41
2023-05-10T12:34:27.016Z,17.54
2023-05-10T12:39:25.421Z,17.61
2023-05-10T12:44:21.868Z,17.67
2023-05-10T12:49:19.890Z,17.79
2023-05-10T12:54:23.883Z,17.94
2023-05-10T12:59:20.538Z,18.02
2023-05-10T13:04:17.112Z,18.14
2023-05-10T13:09:13.667Z,18.26
2023-05-10T13:14:22.563Z,18.28
2023-05-10T13:19:19.213Z,18.25
2023-05-10T13:24:16.038Z,18.35
2023-05-10T13:29:12.565Z,18.36
2023-05-10T13:34:09.054Z,18.48
2023-05-10T13:39:06.292Z,18.56
2023-05-10T13:44:02.846Z,18.61
2023-05-10T13:48:59.386Z,18.73
2023-05-10T13:53:56.006Z,18.75
2023-05-10T13:58:52.706Z,18.78
2023-05-10T14:03:49.463Z,18.86
2023-05-10T14:08:48.499Z,18.82
2023-05-10T14:13:46.383Z,18.84
2023-05-10T14:18:42.906Z,18.87
2023-05-10T14:23:39.574Z,18.85
2023-05-10T14:28:36.164Z,18.76
2023-05-10T14:33:32.697Z,18.79
2023-05-10T14:38:29.531Z,18.74
2023-05-10T14:43:30.786Z,18.83
2023-05-10T14:48:27.748Z,18.84
2023-05-10T14:53:24.268Z,18.83
2023-05-10T14:58:23.679Z,18.77
2023-05-10T15:03:23.672Z,18.70
2023-05-10T15:08:46.049Z,18.79
2023-05-10T15:13:42.895Z,18.79
2023-05-10T15:18:39.474Z,18.83
2023-05-10T15:23:36.431Z,18.80
2023-05-10T15:28:34.284Z,18.87
2023-05-10T15:33:47.566Z,18.87
2023-05-10T15:38:45.343Z,18.83
2023-05-10T15:43:44.874Z,18.91
2023-05-10T15:48:41.401Z,18.90
2023-05-10T15:53:52.817Z,18.84
2023-05-10T15:58:58.202Z,18.91
2023-05-10T16:03:55.149Z,18.82
2023-05-10T16:08:52.912Z,18.85
2023-05-10T16:20:18.489Z,18.69
2023-05-10T16:25:15.496Z,18.54
2023-05-10T16:30:49.404Z,18.39
2023-05-10T16:35:47.310Z,18.20
2023-05-10T16:40:47.859Z,18.07
2023-05-10T16:46:20.880Z,17.90
2023-05-10T16:51:17.467Z,17.80
2023-05-10T16:56:13.912Z,17.83
2023-05-10T17:01:10.460Z,17.82
2023-05-10T17:06:07.155Z,17.84
2023-05-10T17:11:04.282Z,17.83
2023-05-10T17:16:04.149Z,17.83
2023-05-10T17:21:00.739Z,17.82
2023-05-10T17:25:58.108Z,17.81
2023-05-10T17:30:57.645Z,17.79
2023-05-10T17:35:54.219Z,17.78
2023-05-10T17:40:51.303Z,17.80
2023-05-10T17:45:49.312Z,17.79
2023-05-10T17:50:45.861Z,17.71
2023-05-10T17:55:42.476Z,17.68
2023-05-10T18:00:39.050Z,17.62
2023-05-10T18:05:37.278Z,17.45
2023-05-10T18:10:33.917Z,17.26
2023-05-10T18:15:33.449Z,17.14
2023-05-10T18:20:32.461Z,17.00
2023-05-10T18:25:29.440Z,16.93
2023-05-10T18:30:26.091Z,16.86
2023-05-10T18:35:22.948Z,16.82
2023-05-10T18:40:24.046Z,16.73
2023-05-10T18:45:20.498Z,16.64
2023-05-10T18:50:17.503Z,16.70
2023-05-10T18:55:14.136Z,16.58
2023-05-10T19:00:12.725Z,16.54
2023-05-10T19:05:09.585Z,16.35
2023-05-10T19:10:06.546Z,16.40
2023-05-10T19:15:03.323Z,16.32
2023-05-10T19:20:01.946Z,16.34
2023-05-10T19:25:01.360Z,16.30
2023-05-10T19:29:57.961Z,16.23
2023-05-10T19:34:54.546Z,16.18
2023-05-10T19:39:51.853Z,16.06
2023-05-10T19:44:48.549Z,16.12
2023-05-10T19:49:45.040Z,16.03
2023-05-10T19:54:41.667Z,16.01
2023-05-10T19:59:38.324Z,15.96
2023-05-10T20:04:34.864Z,15.88
2023-05-10T20:09:31.344Z,15.84
2023-05-10T20:14:27.619Z,15.83
2023-05-10T20:19:24.210Z,15.74
2023-05-10T20:24:20.867Z,15.64
2023-05-10T20:29:17.482Z,15.61
2023-05-10T20:34:14.294Z,15.49
2023-05-10T20:39:10.796Z,15.54
2023-05-10T20:44:08.289Z,15.47
2023-05-10T20:49:06.044Z,15.38
2023-05-10T20:54:04.369Z,15.42
2023-05-10T20:59:00.972Z,15.34
2023-05-10T21:03:57.616Z,15.33
2023-05-10T21:08:54.219Z,15.31
2023-05-10T21:13:51.089Z,15.26
2023-05-10T21:18:49.304Z,15.18
2023-05-10T21:23:48.967Z,15.17
2023-05-10T21:28:45.764Z,15.12
2023-05-10T21:33:42.284Z,15.13
2023-05-10T21:38:39.239Z,15.11
2023-05-10T21:43:35.711Z,15.05
2023-05-10T21:48:32.029Z,15.03
2023-05-10T21:53:28.761Z,15.02
2023-05-10T21:58:25.332Z,14.95
2023-05-10T22:03:21.865Z,14.97
2023-05-10T22:08:18.393Z,14.97
2023-05-10T22:13:14.794Z,14.98
2023-05-10T22:18:11.334Z,14.99
2023-05-10T22:23:07.877Z,14.93
2023-05-10T22:28:04.276Z,14.92
2023-05-10T22:33:00.788Z,14.89
2023-05-10T22:37:57.716Z,14.87
2023-05-10T22:42:55.757Z,14.83
2023-05-10T22:47:52.444Z,14.87
2023-05-10T22:52:56.568Z,14.77
2023-05-10T22:57:53.429Z,14.77
2023-05-10T23:02:50.551Z,14.77
2023-05-10T23:07:52.902Z,14.77
2023-05-10T23:12:52.107Z,14.68
2023-05-10T23:17:52.611Z,14.65
2023-05-10T23:22:49.696Z,14.59
2023-05-10T23:27:55.000Z,14.65
2023-05-10T23:32:52.709Z,14.67
2023-05-10T23:37:49.774Z,14.63
2023-05-10T23:42:46.495Z,14.63
2023-05-10T23:47:43.921Z,14.62
2023-05-10T23:52:40.509Z,14.64
2023-05-10T23:57:37.080Z,14.63
